createdAt,value
2022-12-24T00:03:03.921Z,93898
2022-12-24T00:06:29.058Z,93905
2022-12-24T00:09:54.301Z,93903
2022-12-24T00:13:19.578Z,93904
2022-12-24T00:16:44.807Z,93910
2022-12-24T00:20:10.050Z,93916
2022-12-24T00:23:35.294Z,93911
2022-12-24T00:27:00.624Z,93914
2022-12-24T00:30:25.895Z,93917
2022-12-24T00:33:51.107Z,93920
2022-12-24T00:37:16.356Z,93924
2022-12-24T00:40:41.594Z,93919
2022-12-24T00:44:06.855Z,93925
2022-12-24T00:47:32.124Z,93944
2022-12-24T00:50:57.385Z,93959
2022-12-24T00:54:22.584Z,93953
2022-12-24T00:57:47.822Z,93960
2022-12-24T01:01:13.256Z,93971
2022-12-24T01:04:38.342Z,93971
2022-12-24T01:08:03.557Z,93969
2022-12-24T01:11:28.807Z,93987
2022-12-24T01:14:54.068Z,93972
2022-12-24T01:18:19.306Z,93981
2022-12-24T01:21:44.603Z,93995
2022-12-24T01:25:09.806Z,93999
2022-12-24T01:28:35.052Z,93997
2022-12-24T01:32:00.289Z,94004
2022-12-24T01:35:25.564Z,94010
2022-12-24T01:38:50.827Z,94025
2022-12-24T01:42:16.031Z,94020
2022-12-24T01:45:41.277Z,94025
2022-12-24T01:49:06.525Z,94027
2022-12-24T01:52:31.765Z,94026
2022-12-24T01:55:57.030Z,94032
2022-12-24T01:59:22.261Z,94036
2022-12-24T02:02:47.688Z,94045
2022-12-24T02:06:12.767Z,94062
2022-12-24T02:09:38.008Z,94061
2022-12-24T02:13:03.274Z,94082
2022-12-24T02:16:28.598Z,94079
2022-12-24T02:19:53.731Z,94080
2022-12-24T02:23:18.973Z,94086
2022-12-24T02:26:44.206Z,94081
2022-12-24T02:30:09.479Z,94093
2022-12-24T02:33:34.697Z,94093
2022-12-24T02:36:59.917Z,94100
2022-12-24T02:40:25.188Z,94096
2022-12-24T02:43:50.466Z,94102
2022-12-24T02:47:15.735Z,94104
2022-12-24T02:50:40.946Z,94097
2022-12-24T02:54:06.215Z,94101
2022-12-24T02:57:31.467Z,94112
2022-12-24T03:00:56.795Z,94111
2022-12-24T03:04:21.979Z,94107
2022-12-24T03:07:47.215Z,94115
2022-12-24T03:11:12.445Z,94121
2022-12-24T03:14:37.718Z,94120
2022-12-24T03:18:02.967Z,94120
2022-12-24T03:21:28.474Z,94117
2022-12-24T03:24:53.690Z,94123
2022-12-24T03:28:18.947Z,94124
2022-12-24T03:31:44.361Z,94137
2022-12-24T03:35:09.449Z,94156
2022-12-24T03:38:34.715Z,94158
2022-12-24T03:41:59.954Z,94162
2022-12-24T03:45:25.264Z,94170
2022-12-24T03:48:50.457Z,94173
2022-12-24T03:52:15.722Z,94178
2022-12-24T03:55:40.982Z,94191
2022-12-24T03:59:06.243Z,94194
2022-12-24T04:02:31.596Z,94193
2022-12-24T04:05:56.732Z,94199
2022-12-24T04:09:21.973Z,94198
2022-12-24T04:12:47.255Z,94207
2022-12-24T04:16:12.562Z,94212
2022-12-24T04:19:37.755Z,94210
2022-12-24T04:23:02.993Z,94223
2022-12-24T04:26:28.246Z,94237
2022-12-24T04:29:53.516Z,94240
2022-12-24T04:33:18.752Z,94245
2022-12-24T04:36:43.995Z,94240
2022-12-24T04:40:09.262Z,94241
2022-12-24T04:43:34.513Z,94248
2022-12-24T04:46:59.767Z,94258
2022-12-24T04:50:24.995Z,94255
2022-12-24T04:53:50.261Z,94256
2022-12-24T04:57:15.499Z,94255
2022-12-24T05:00:40.773Z,94263
2022-12-24T05:04:06.039Z,94270
2022-12-24T05:07:31.276Z,94271
2022-12-24T05:10:56.528Z,94271
2022-12-24T05:14:21.799Z,94277
2022-12-24T05:17:47.023Z,94278
2022-12-24T05:21:12.280Z,94282
2022-12-24T05:24:37.525Z,94291
2022-12-24T05:28:02.790Z,94303
2022-12-24T05:31:28.015Z,94297
2022-12-24T05:34:53.277Z,94299
2022-12-24T05:38:18.542Z,94308
2022-12-24T05:41:43.770Z,94312
2022-12-24T05:45:09.039Z,94309
2022-12-24T05:48:34.283Z,94307
2022-12-24T05:51:59.493Z,94307
2022-12-24T05:55:24.747Z,94326
2022-12-24T05:58:49.991Z,94323
2022-12-24T06:02:15.232Z,94332
2022-12-24T06:05:40.471Z,94344
2022-12-24T06:09:05.708Z,94353
2022-12-24T06:12:30.972Z,94358
2022-12-24T06:15:56.243Z,94370
2022-12-24T06:19:21.443Z,94374
2022-12-24T06:22:46.893Z,94362
2022-12-24T06:26:12.116Z,94372
2022-12-24T06:29:37.383Z,94374
2022-12-24T06:33:02.596Z,94375
2022-12-24T06:36:27.834Z,94361
2022-12-24T06:39:53.074Z,94364
2022-12-24T06:43:18.346Z,94366
2022-12-24T06:46:43.736Z,94377
2022-12-24T06:50:08.870Z,94381
2022-12-24T06:53:34.113Z,94389
2022-12-24T06:56:59.582Z,94386
2022-12-24T07:00:24.852Z,94393
2022-12-24T07:03:50.230Z,94395
2022-12-24T07:07:15.369Z,94400
2022-12-24T07:10:40.634Z,94406
2022-12-24T07:14:05.918Z,94417
2022-12-24T07:17:31.290Z,94412
2022-12-24T07:20:56.421Z,94421
2022-12-24T07:24:21.660Z,94420
2022-12-24T07:27:46.916Z,94420
2022-12-24T07:31:12.360Z,94433
2022-12-24T07:34:37.457Z,94438
2022-12-24T07:38:02.760Z,94441
2022-12-24T07:41:27.952Z,94437
2022-12-24T07:44:53.195Z,94444
2022-12-24T07:48:18.444Z,94455
2022-12-24T07:51:43.695Z,94465
2022-12-24T07:55:08.978Z,94465
2022-12-24T07:58:34.203Z,94471
2022-12-24T08:01:59.667Z,94473
2022-12-24T08:05:24.963Z,94483
2022-12-24T08:08:50.189Z,94483
2022-12-24T08:12:15.442Z,94486
2022-12-24T08:15:40.681Z,94496
2022-12-24T08:19:05.962Z,94504
2022-12-24T08:22:31.195Z,94502
2022-12-24T08:25:56.454Z,94504
2022-12-24T08:29:21.732Z,94502
2022-12-24T08:32:46.943Z,94507
2022-12-24T08:36:12.200Z,94509
2022-12-24T08:39:37.442Z,94514
2022-12-24T08:43:02.667Z,94519
2022-12-24T08:46:27.984Z,94527
2022-12-24T08:49:53.166Z,94528
2022-12-24T08:53:18.422Z,94536
2022-12-24T08:56:43.645Z,94537
2022-12-24T09:00:08.939Z,94547
2022-12-24T09:03:34.289Z,94549
2022-12-24T09:06:59.413Z,94556
2022-12-24T09:10:24.616Z,94556
2022-12-24T09:13:49.880Z,94554
2022-12-24T09:17:15.078Z,94560
2022-12-24T09:20:44.340Z,94561
2022-12-24T09:24:05.584Z,94562
2022-12-24T09:27:30.846Z,94569
2022-12-24T09:30:56.122Z,94570
2022-12-24T09:34:25.239Z,94580
2022-12-24T09:37:47.043Z,94577
2022-12-24T09:41:12.237Z,94585
2022-12-24T09:44:37.533Z,94587
2022-12-24T09:48:02.819Z,94595
2022-12-24T09:51:28.067Z,94591
2022-12-24T09:54:53.364Z,94591
2022-12-24T09:58:25.483Z,94603
2022-12-24T10:01:50.925Z,94602
2022-12-24T10:05:16.097Z,94610
2022-12-24T10:08:41.368Z,94602
2022-12-24T10:12:06.653Z,94612
2022-12-24T10:15:31.927Z,94614
2022-12-24T10:18:57.235Z,94617
2022-12-24T10:22:22.490Z,94619
2022-12-24T10:25:47.734Z,94613
2022-12-24T10:29:13.009Z,94626
2022-12-24T10:32:38.211Z,94616
2022-12-24T10:36:08.238Z,94611
2022-12-24T10:39:29.014Z,94617
2022-12-24T10:42:54.275Z,94627
2022-12-24T10:46:19.655Z,94628
2022-12-24T10:49:44.736Z,94633
2022-12-24T10:53:10.007Z,94637
2022-12-24T10:56:35.231Z,94645
2022-12-24T11:00:00.511Z,94641
2022-12-24T11:03:25.782Z,94638
2022-12-24T11:06:50.965Z,94646
2022-12-24T11:10:16.206Z,94650
2022-12-24T11:13:41.506Z,94656
2022-12-24T11:17:06.689Z,94663
2022-12-24T11:20:31.956Z,94659
2022-12-24T11:23:57.251Z,94657
2022-12-24T11:27:22.433Z,94656
2022-12-24T11:30:47.690Z,94652
2022-12-24T11:34:12.938Z,94653
2022-12-24T11:37:38.250Z,94655
2022-12-24T11:41:03.467Z,94663
2022-12-24T11:44:28.798Z,94652
2022-12-24T11:47:54.037Z,94659
2022-12-24T11:51:19.296Z,94673
2022-12-24T11:54:44.584Z,94669
2022-12-24T11:58:09.853Z,94663
2022-12-24T12:01:35.121Z,94665
2022-12-24T12:05:00.481Z,94670
2022-12-24T12:08:25.943Z,94674
2022-12-24T12:11:51.362Z,94676
2022-12-24T12:15:16.769Z,94679
2022-12-24T12:18:42.834Z,94667
2022-12-24T12:22:08.088Z,94669
2022-12-24T12:25:33.429Z,94672
2022-12-24T12:28:59.740Z,94671
2022-12-24T12:32:25.101Z,94669
2022-12-24T12:35:50.427Z,94684
2022-12-24T12:39:15.794Z,94683
2022-12-24T12:42:41.128Z,94688
2022-12-24T12:46:06.518Z,94690
2022-12-24T12:49:31.903Z,94698
2022-12-24T12:52:57.208Z,94695
2022-12-24T12:56:22.641Z,94696
2022-12-24T12:59:47.954Z,94695
2022-12-24T13:03:13.331Z,94702
2022-12-24T13:06:38.569Z,94700
2022-12-24T13:10:03.950Z,94696
2022-12-24T13:13:29.280Z,94692
2022-12-24T13:16:54.682Z,94703
2022-12-24T13:20:20.147Z,94702
2022-12-24T13:23:45.449Z,94708
2022-12-24T13:27:10.723Z,94711
2022-12-24T13:30:36.052Z,94712
2022-12-24T13:34:01.362Z,94718
2022-12-24T13:37:26.667Z,94716
2022-12-24T13:40:52.006Z,94717
2022-12-24T13:44:17.379Z,94721
2022-12-24T13:47:42.715Z,94722
2022-12-24T13:51:08.085Z,94721
2022-12-24T13:54:33.391Z,94713
2022-12-24T13:57:58.767Z,94698
2022-12-24T14:01:24.215Z,94704
2022-12-24T14:04:49.418Z,94719
2022-12-24T14:08:15.141Z,94719
2022-12-24T14:11:40.543Z,94727
2022-12-24T14:15:05.851Z,94739
2022-12-24T14:18:31.117Z,94740
2022-12-24T14:21:56.380Z,94746
2022-12-24T14:25:21.672Z,94744
2022-12-24T14:28:46.973Z,94744
2022-12-24T15:07:07.505Z,94803
2022-12-24T15:10:32.737Z,94805
2022-12-24T15:13:57.990Z,94810
2022-12-24T15:17:23.229Z,94814
2022-12-24T15:20:48.487Z,94810
2022-12-24T15:24:13.809Z,94808
2022-12-24T15:27:39.064Z,94810
2022-12-24T15:31:04.418Z,94815
2022-12-24T15:34:29.769Z,94811
2022-12-24T15:37:55.054Z,94808
2022-12-24T15:41:20.461Z,94807
2022-12-24T15:44:45.865Z,94821
2022-12-24T15:48:11.355Z,94822
2022-12-24T15:51:37.213Z,94829
2022-12-24T15:55:02.071Z,94830
2022-12-24T15:58:27.525Z,94846
2022-12-24T16:01:52.841Z,94843
2022-12-24T16:05:18.107Z,94844
2022-12-24T16:08:43.357Z,94851
2022-12-24T16:12:08.605Z,94856
2022-12-24T16:15:34.321Z,94861
2022-12-24T16:18:59.523Z,94861
2022-12-24T16:22:24.795Z,94866
2022-12-24T16:25:50.043Z,94856
2022-12-24T16:29:15.329Z,94864
2022-12-24T16:32:40.592Z,94868
2022-12-24T16:36:05.821Z,94875
2022-12-24T16:39:31.089Z,94876
2022-12-24T16:42:56.367Z,94880
2022-12-24T16:46:21.758Z,94878
2022-12-24T16:49:47.076Z,94883
2022-12-24T16:53:17.279Z,94889
2022-12-24T16:56:37.832Z,94896
2022-12-24T17:00:03.167Z,94891
2022-12-24T17:03:28.531Z,94891
2022-12-24T17:06:53.727Z,94895
2022-12-24T17:10:19.046Z,94895
2022-12-24T17:13:44.369Z,94896
2022-12-24T17:17:09.646Z,94896
2022-12-24T17:20:34.995Z,94902
2022-12-24T17:24:00.282Z,94908
2022-12-24T17:27:25.630Z,94911
2022-12-24T17:30:51.017Z,94926
2022-12-24T17:34:16.314Z,94927
2022-12-24T17:37:41.592Z,94938
2022-12-24T17:41:06.829Z,94937
2022-12-24T17:44:32.081Z,94945
2022-12-24T17:47:57.537Z,94945
2022-12-24T17:51:23.128Z,94950
2022-12-24T17:54:48.340Z,94947
2022-12-24T17:58:13.630Z,94954
2022-12-24T18:01:39.000Z,94948
2022-12-24T18:05:04.123Z,94944
2022-12-24T18:08:30.140Z,94939
2022-12-24T18:11:55.424Z,94938
2022-12-24T18:15:20.705Z,94946
2022-12-24T18:18:46.669Z,94933
2022-12-24T18:22:11.960Z,94936
2022-12-24T18:25:37.279Z,94946
2022-12-24T18:29:02.528Z,94947
2022-12-24T18:32:27.830Z,94950
2022-12-24T18:35:53.083Z,94942
2022-12-24T18:39:18.447Z,94945
2022-12-24T18:42:43.707Z,94942
2022-12-24T18:46:09.205Z,94941
2022-12-24T18:49:34.286Z,94941
2022-12-24T18:53:00.167Z,94947
2022-12-24T18:56:25.429Z,94948
2022-12-24T18:59:50.715Z,94951
2022-12-24T19:03:16.792Z,94944
2022-12-24T19:06:42.778Z,94943
2022-12-24T19:10:06.554Z,94946
2022-12-24T19:13:31.853Z,94950
2022-12-24T19:16:57.235Z,94948
2022-12-24T19:20:22.836Z,94949
2022-12-24T19:23:48.131Z,94954
2022-12-24T19:27:13.376Z,94963
2022-12-24T19:30:38.633Z,94965
2022-12-24T19:34:03.948Z,94970
2022-12-24T19:37:29.237Z,94976
2022-12-24T19:40:54.563Z,94975
2022-12-24T19:44:19.852Z,94983
2022-12-24T19:47:45.132Z,94977
2022-12-24T19:51:10.399Z,94994
2022-12-24T19:54:35.677Z,94990
2022-12-24T19:58:00.995Z,94992
2022-12-24T20:01:26.286Z,94990
2022-12-24T20:04:51.547Z,94993
2022-12-24T20:08:16.843Z,94999
2022-12-24T20:11:42.090Z,95006
2022-12-24T20:15:07.384Z,95008
2022-12-24T20:18:32.620Z,95012
2022-12-24T20:21:57.863Z,95012
2022-12-24T20:25:23.163Z,95026
2022-12-24T20:28:48.477Z,95029
2022-12-24T20:32:13.811Z,95033
2022-12-24T20:35:39.050Z,95029
2022-12-24T20:39:04.311Z,95023
2022-12-24T20:42:29.569Z,95034
2022-12-24T20:45:54.838Z,95036
2022-12-24T20:49:20.134Z,95035
2022-12-24T20:52:45.359Z,95040
2022-12-24T20:56:10.634Z,95049
2022-12-24T20:59:35.874Z,95050
2022-12-24T21:03:01.257Z,95051
2022-12-24T21:06:26.450Z,95040
2022-12-24T21:09:51.702Z,95044
2022-12-24T21:13:16.995Z,95039
2022-12-24T21:16:42.329Z,95024
2022-12-24T21:20:07.516Z,95029
2022-12-24T21:23:32.826Z,95039
2022-12-24T21:26:58.079Z,95044
2022-12-24T21:30:23.549Z,95048
2022-12-24T21:33:48.621Z,95049
2022-12-24T21:37:14.009Z,95051
2022-12-24T21:40:39.201Z,95050
2022-12-24T21:44:04.458Z,95052
2022-12-24T21:47:29.715Z,95058
2022-12-24T21:50:54.963Z,95057
2022-12-24T21:54:20.214Z,95057
2022-12-24T21:57:45.500Z,95057
2022-12-24T22:01:10.867Z,95057
2022-12-24T22:04:36.010Z,95058
2022-12-24T22:08:01.278Z,95066
2022-12-24T22:11:27.338Z,95078
2022-12-24T22:14:52.643Z,95071
2022-12-24T22:18:17.917Z,95060
2022-12-24T22:21:43.156Z,95067
2022-12-24T22:25:08.401Z,95074
2022-12-24T22:28:33.681Z,95063
2022-12-24T22:31:59.871Z,95072
2022-12-24T22:35:25.099Z,95071
2022-12-24T22:38:50.368Z,95057
2022-12-24T22:42:15.613Z,95058
2022-12-24T22:45:40.945Z,95058
2022-12-24T22:49:06.219Z,95057
2022-12-24T22:52:31.412Z,95073
2022-12-24T22:55:56.678Z,95090
2022-12-24T22:59:21.987Z,95097
2022-12-24T23:02:47.347Z,95093
2022-12-24T23:06:12.535Z,95093
2022-12-24T23:09:37.758Z,95095
2022-12-24T23:13:03.017Z,95081
2022-12-24T23:16:28.311Z,95083
2022-12-24T23:19:53.522Z,95097
2022-12-24T23:23:18.816Z,95106
2022-12-24T23:26:44.042Z,95101
2022-12-24T23:30:09.329Z,95103
2022-12-24T23:33:34.612Z,95087
2022-12-24T23:36:59.828Z,95095
2022-12-24T23:40:25.114Z,95100
2022-12-24T23:43:50.352Z,95094
2022-12-24T23:47:15.644Z,95091
2022-12-24T23:50:40.881Z,95100
2022-12-24T23:54:06.119Z,95101
2022-12-24T23:57:31.407Z,95101
